Time;durP1;ratioP1;P1;durP2;ratioP2;P2;SDS_P1;SDS_P2;PMS_P1;PMS_P2;Temp;Humidity;BMP_temperature;BMP_pressure;BME280_temperature;BME280_humidity;BME280_pressure;Samples;Min_cycle;Max_cycle;Signal;HPM_P1;HPM_P2
2020/12/31 00:02:01;;;;;;;6.55;5.95;;;25.80;62.50;;;;;;4964662;28;20683;-52
2020/12/31 00:04:32;;;;;;;6.38;5.78;;;25.70;62.60;;;;;;4960799;28;20252;-49
2020/12/31 00:07:02;;;;;;;6.95;6.25;;;25.70;62.60;;;;;;4952641;28;20695;-53
2020/12/31 00:09:35;;;;;;;8.02;6.55;;;25.70;62.70;;;;;;4966076;28;20293;-50
2020/12/31 00:12:06;;;;;;;9.52;6.70;;;25.70;62.80;;;;;;4963443;28;20229;-51
2020/12/31 00:14:36;;;;;;;8.32;6.20;;;25.70;62.90;;;;;;4966759;28;20236;-50
2020/12/31 00:17:07;;;;;;;6.90;6.07;;;25.70;62.90;;;;;;4965873;28;20228;-50
2020/12/31 00:19:38;;;;;;;8.93;6.03;;;25.70;62.90;;;;;;4966413;28;20225;-53
2020/12/31 00:22:09;;;;;;;7.18;6.47;;;25.60;62.80;;;;;;4967153;28;20237;-50
2020/12/31 00:24:41;;;;;;;6.97;6.28;;;25.70;63.00;;;;;;4964367;28;20225;-50
2020/12/31 00:27:11;;;;;;;8.88;7.20;;;25.60;62.80;;;;;;4968834;28;20592;-48
2020/12/31 00:29:42;;;;;;;6.30;5.65;;;25.60;62.90;;;;;;4964017;28;20232;-50
2020/12/31 00:32:12;;;;;;;8.25;6.53;;;25.60;62.80;;;;;;4965413;28;20284;-53
2020/12/31 00:34:43;;;;;;;8.38;6.68;;;25.60;62.80;;;;;;4965002;28;20236;-49
2020/12/31 00:37:13;;;;;;;7.97;6.07;;;25.60;62.80;;;;;;4968453;28;20231;-51
2020/12/31 00:39:45;;;;;;;7.10;6.40;;;25.60;62.80;;;;;;4967632;28;20239;-49
2020/12/31 00:42:17;;;;;;;7.00;6.30;;;25.60;62.80;;;;;;4967173;28;20228;-52
2020/12/31 00:44:47;;;;;;;7.28;6.57;;;25.60;62.60;;;;;;4961109;28;20701;-51
2020/12/31 00:47:18;;;;;;;7.50;6.75;;;25.60;62.60;;;;;;4963052;28;20232;-49
2020/12/31 00:49:48;;;;;;;8.13;7.07;;;25.60;62.80;;;;;;4965561;28;20243;-49
2020/12/31 00:52:18;;;;;;;7.10;5.95;;;25.60;62.70;;;;;;4964645;28;21795;-49
2020/12/31 00:54:50;;;;;;;9.23;6.90;;;25.60;62.60;;;;;;4956167;28;20232;-52
2020/12/31 00:57:21;;;;;;;7.72;6.90;;;25.70;62.60;;;;;;4962447;28;20236;-50
2020/12/31 00:59:51;;;;;;;6.80;6.10;;;25.70;62.50;;;;;;4965611;28;20312;-49
2020/12/31 01:02:22;;;;;;;8.75;6.18;;;25.70;62.50;;;;;;4963045;28;20329;-49
2020/12/31 01:04:52;;;;;;;8.23;7.43;;;25.70;62.50;;;;;;4955290;28;20260;-50
2020/12/31 01:07:24;;;;;;;8.43;6.65;;;25.70;62.40;;;;;;4959781;28;20803;-49
2020/12/31 01:09:55;;;;;;;7.28;6.45;;;25.70;62.40;;;;;;4958290;28;20236;-51
2020/12/31 01:12:26;;;;;;;9.57;7.28;;;25.80;62.60;;;;;;4958357;28;20343;-49
2020/12/31 01:14:56;;;;;;;6.60;5.93;;;25.80;62.40;;;;;;4962684;28;20225;-51
2020/12/31 01:17:27;;;;;;;8.23;6.65;;;25.80;63.20;;;;;;4961139;28;20923;-51
2020/12/31 01:19:57;;;;;;;6.70;6.07;;;25.80;62.20;;;;;;4959048;28;20240;-52
2020/12/31 01:22:28;;;;;;;7.18;6.47;;;25.90;62.30;;;;;;4966173;28;20221;-51
2020/12/31 01:25:00;;;;;;;8.65;6.45;;;25.90;62.00;;;;;;4964177;28;20225;-49
2020/12/31 01:27:30;;;;;;;6.85;5.90;;;25.90;62.00;;;;;;4965829;28;20232;-49
2020/12/31 01:30:00;;;;;;;7.00;6.25;;;25.90;62.00;;;;;;4968065;28;20623;-51
2020/12/31 01:32:31;;;;;;;7.43;6.72;;;26.00;61.90;;;;;;4966318;28;20238;-49
2020/12/31 01:35:03;;;;;;;7.47;6.47;;;26.00;61.80;;;;;;4969970;28;20620;-54
2020/12/31 01:37:34;;;;;;;8.77;6.75;;;26.00;61.60;;;;;;4969792;28;20244;-50
2020/12/31 01:40:06;;;;;;;6.85;6.20;;;26.00;61.50;;;;;;4961101;28;20236;-50
2020/12/31 01:42:39;;;;;;;8.30;6.55;;;26.10;61.40;;;;;;4962309;28;20247;-51
2020/12/31 01:45:10;;;;;;;7.25;6.38;;;26.10;61.40;;;;;;4959887;28;20227;-54
2020/12/31 01:47:41;;;;;;;7.88;6.72;;;26.10;61.50;;;;;;4962441;28;20244;-49
2020/12/31 01:50:11;;;;;;;7.43;6.72;;;26.20;61.40;;;;;;4963715;28;20324;-52
2020/12/31 01:52:42;;;;;;;11.07;6.68;;;26.20;61.20;;;;;;4962944;28;20243;-53
2020/12/31 01:55:13;;;;;;;7.82;7.03;;;26.30;61.00;;;;;;4967807;28;20813;-54
2020/12/31 01:57:44;;;;;;;8.70;7.80;;;26.30;60.90;;;;;;4969161;28;20237;-53
2020/12/31 02:00:14;;;;;;;10.73;8.13;;;26.30;60.70;;;;;;4968001;28;20345;-48
2020/12/31 02:02:44;;;;;;;10.65;7.03;;;26.40;60.80;;;;;;4965356;28;20243;-53
2020/12/31 02:05:15;;;;;;;8.10;6.97;;;26.40;60.70;;;;;;4955313;28;20336;-56
2020/12/31 02:07:47;;;;;;;9.18;6.40;;;26.50;60.30;;;;;;4964451;28;20248;-48
2020/12/31 02:10:19;;;;;;;7.18;6.47;;;26.50;60.00;;;;;;4945117;28;20340;-54
2020/12/31 02:12:50;;;;;;;10.85;8.32;;;26.60;60.00;;;;;;4946172;28;20272;-53
2020/12/31 02:15:20;;;;;;;8.00;7.30;;;26.60;59.80;;;;;;4947009;29;20728;-50
2020/12/31 02:17:51;;;;;;;9.38;7.80;;;26.70;59.70;;;;;;4943814;28;20273;-51
2020/12/31 02:20:22;;;;;;;8.27;6.57;;;26.70;59.70;;;;;;4943450;28;20237;-50
2020/12/31 02:22:54;;;;;;;7.97;6.28;;;26.80;59.50;;;;;;4942989;28;20238;-52
2020/12/31 02:25:25;;;;;;;6.85;6.15;;;26.90;59.40;;;;;;4941681;28;20596;-50
2020/12/31 02:27:55;;;;;;;7.65;6.85;;;26.90;59.50;;;;;;4940945;28;20229;-51
2020/12/31 02:30:26;;;;;;;7.32;6.40;;;27.00;59.20;;;;;;4936106;28;20252;-52
2020/12/31 02:32:57;;;;;;;8.38;6.65;;;27.10;59.30;;;;;;4942677;28;20768;-56
2020/12/31 02:35:27;;;;;;;7.70;6.95;;;27.10;59.10;;;;;;4959525;28;20236;-50
2020/12/31 02:37:59;;;;;;;9.60;6.93;;;27.20;58.80;;;;;;4965292;28;20239;-53
2020/12/31 02:40:29;;;;;;;7.18;6.38;;;27.30;58.90;;;;;;4962076;28;20676;-53
2020/12/31 02:43:00;;;;;;;6.53;5.93;;;27.30;58.70;;;;;;4964143;28;20225;-48
2020/12/31 02:45:31;;;;;;;8.30;6.45;;;27.40;58.40;;;;;;4963528;28;20264;-50
2020/12/31 02:48:01;;;;;;;7.85;6.38;;;27.50;58.60;;;;;;4965579;28;20262;-55
2020/12/31 02:50:31;;;;;;;9.43;6.80;;;27.50;58.40;;;;;;4963958;28;20286;-55
2020/12/31 02:53:03;;;;;;;7.05;6.32;;;27.60;58.40;;;;;;4965626;28;20217;-52
2020/12/31 02:55:34;;;;;;;7.75;6.57;;;27.60;58.00;;;;;;4990127;28;20251;-50
2020/12/31 02:58:04;;;;;;;7.10;6.40;;;27.70;58.00;;;;;;5002557;28;20248;-52
2020/12/31 03:00:34;;;;;;;7.07;6.32;;;27.70;58.00;;;;;;4961080;28;20290;-52
2020/12/31 03:03:05;;;;;;;7.43;6.60;;;27.80;57.90;;;;;;4964942;28;20233;-52
2020/12/31 03:05:35;;;;;;;7.30;6.60;;;27.80;57.40;;;;;;4961796;28;20260;-49
2020/12/31 03:08:08;;;;;;;7.68;6.40;;;27.90;57.30;;;;;;4961628;28;20240;-53
2020/12/31 03:10:39;;;;;;;7.03;6.35;;;27.90;56.80;;;;;;4964783;28;20240;-53
2020/12/31 03:13:10;;;;;;;7.97;6.72;;;28.00;57.00;;;;;;4967451;28;20232;-52
2020/12/31 03:15:40;;;;;;;7.35;6.65;;;28.10;57.10;;;;;;4966316;28;20236;-51
2020/12/31 03:18:11;;;;;;;7.80;6.63;;;28.10;57.00;;;;;;4955640;28;20232;-52
2020/12/31 03:20:43;;;;;;;8.20;7.07;;;28.10;56.70;;;;;;4961774;28;20257;-51
2020/12/31 03:23:15;;;;;;;8.90;7.55;;;28.20;56.50;;;;;;4958981;28;20915;-49
2020/12/31 03:25:46;;;;;;;8.20;6.43;;;28.30;56.40;;;;;;4964954;28;20251;-51
2020/12/31 03:28:16;;;;;;;7.40;6.55;;;28.40;56.40;;;;;;4956471;28;20233;-50
2020/12/31 03:30:47;;;;;;;10.85;6.88;;;28.40;56.40;;;;;;4966492;28;20237;-54
2020/12/31 03:33:18;;;;;;;6.85;6.25;;;28.40;56.30;;;;;;4962817;28;20232;-51
2020/12/31 03:35:48;;;;;;;11.32;7.13;;;28.50;56.30;;;;;;4958478;28;20229;-51
2020/12/31 03:38:20;;;;;;;6.78;6.18;;;28.60;55.80;;;;;;4963714;28;20593;-54
2020/12/31 03:40:51;;;;;;;9.15;7.40;;;28.60;55.70;;;;;;4960374;28;20661;-55
2020/12/31 03:43:21;;;;;;;8.77;7.88;;;28.60;55.60;;;;;;4957765;28;20629;-50
2020/12/31 03:45:52;;;;;;;8.93;7.30;;;28.70;55.50;;;;;;4965684;28;20228;-53
2020/12/31 03:48:22;;;;;;;9.75;7.63;;;28.80;55.70;;;;;;4966124;28;20240;-55
2020/12/31 03:50:53;;;;;;;7.68;6.97;;;28.80;55.10;;;;;;4958502;28;20239;-51
2020/12/31 03:53:24;;;;;;;7.90;6.93;;;28.90;55.30;;;;;;4969078;28;20236;-51
2020/12/31 03:55:55;;;;;;;7.88;6.75;;;29.00;55.10;;;;;;4969984;28;20245;-51
2020/12/31 03:58:25;;;;;;;7.82;7.10;;;29.00;55.10;;;;;;4965502;28;20244;-49
2020/12/31 04:00:56;;;;;;;8.52;7.72;;;29.00;55.00;;;;;;4969594;28;20244;-49
2020/12/31 04:03:27;;;;;;;7.95;7.15;;;29.10;54.70;;;;;;4967496;28;20228;-51
2020/12/31 04:05:57;;;;;;;8.43;7.57;;;29.20;54.50;;;;;;4968467;28;20236;-51
2020/12/31 04:08:29;;;;;;;8.27;6.80;;;29.20;54.30;;;;;;4968925;28;20229;-50
2020/12/31 04:11:00;;;;;;;7.25;6.55;;;29.20;54.70;;;;;;4968924;28;20260;-52
2020/12/31 04:13:31;;;;;;;7.88;6.88;;;29.30;54.30;;;;;;4963095;28;20629;-54
2020/12/31 04:16:02;;;;;;;7.60;7.00;;;29.40;54.90;;;;;;4968856;28;20236;-53
2020/12/31 04:18:32;;;;;;;7.88;7.07;;;29.40;54.20;;;;;;4969586;28;20316;-54
2020/12/31 04:21:03;;;;;;;7.55;6.85;;;29.40;53.60;;;;;;4967315;28;20231;-56
2020/12/31 04:23:34;;;;;;;7.18;6.50;;;29.50;53.80;;;;;;4968210;28;20244;-55
2020/12/31 04:26:05;;;;;;;8.43;6.78;;;29.50;53.80;;;;;;4969809;28;20250;-54
2020/12/31 04:28:35;;;;;;;7.55;6.85;;;29.60;53.60;;;;;;4969374;28;20283;-53
2020/12/31 04:31:06;;;;;;;7.80;6.93;;;29.60;53.80;;;;;;4964393;28;20240;-51
2020/12/31 04:33:37;;;;;;;7.78;6.53;;;29.70;53.90;;;;;;4960374;28;20240;-53
2020/12/31 04:36:08;;;;;;;8.18;6.97;;;29.70;53.80;;;;;;4960868;28;20240;-54
2020/12/31 04:38:39;;;;;;;7.95;7.15;;;29.80;53.80;;;;;;4950555;28;20245;-56
2020/12/31 04:41:10;;;;;;;8.25;7.43;;;29.80;53.40;;;;;;4959079;28;20328;-51
2020/12/31 04:43:41;;;;;;;8.68;7.72;;;29.90;53.10;;;;;;4965707;28;20252;-51
2020/12/31 04:46:12;;;;;;;8.02;7.22;;;30.00;52.40;;;;;;4968158;28;20228;-52
2020/12/31 04:48:45;;;;;;;8.02;7.22;;;30.00;52.60;;;;;;4968461;28;20232;-52
2020/12/31 04:51:15;;;;;;;10.57;9.45;;;30.10;52.50;;;;;;4968070;28;20236;-53
2020/12/31 04:53:46;;;;;;;14.15;12.55;;;30.10;52.10;;;;;;4968766;28;20255;-55
2020/12/31 04:56:18;;;;;;;11.45;8.88;;;30.10;51.90;;;;;;4927800;29;20234;-55
2020/12/31 04:58:49;;;;;;;10.52;9.48;;;30.10;51.80;;;;;;4928830;29;20234;-54
2020/12/31 05:01:19;;;;;;;20.38;18.17;;;30.20;51.80;;;;;;4926141;29;20320;-54
2020/12/31 05:03:50;;;;;;;25.85;23.05;;;30.20;52.00;;;;;;4928151;29;20242;-51
2020/12/31 05:06:21;;;;;;;31.27;27.63;;;30.30;52.00;;;;;;4926894;29;20261;-54
2020/12/31 05:08:52;;;;;;;25.45;22.92;;;30.30;51.50;;;;;;4927469;29;20241;-53
2020/12/31 05:11:23;;;;;;;11.60;10.50;;;30.30;51.40;;;;;;4925088;28;20237;-51
2020/12/31 05:13:55;;;;;;;52.45;47.30;;;30.30;51.30;;;;;;4923279;29;20253;-50
2020/12/31 05:16:31;;;;;;;38.00;34.28;;;30.30;51.20;;;;;;4924435;28;20321;-53
2020/12/31 05:19:02;;;;;;;31.08;28.10;;;30.30;51.10;;;;;;4928015;29;20233;-51
2020/12/31 05:21:32;;;;;;;36.25;32.58;;;30.40;51.20;;;;;;4919322;28;20244;-55
2020/12/31 05:24:13;;;;;;;19.17;17.38;;;30.40;51.10;;;;;;4929584;28;20317;-54
2020/12/31 05:26:44;;;;;;;14.05;12.40;;;30.40;51.30;;;;;;4933299;28;20237;-54
2020/12/31 05:29:14;;;;;;;10.00;8.70;;;30.40;51.30;;;;;;4930893;28;20257;-51
2020/12/31 05:31:54;;;;;;;9.27;7.40;;;30.50;51.20;;;;;;4929765;29;20237;-54
2020/12/31 05:34:31;;;;;;;10.80;8.82;;;30.60;51.10;;;;;;4928933;29;20240;-51
2020/12/31 05:37:16;;;;;;;24.88;22.63;;;30.60;50.70;;;;;;4924567;29;20241;-49
2020/12/31 05:40:00;;;;;;;25.08;22.42;;;30.70;50.90;;;;;;4928537;29;20230;-54
2020/12/31 05:42:32;;;;;;;25.80;23.30;;;30.70;50.60;;;;;;4928917;29;20740;-55
2020/12/31 05:45:07;;;;;;;11.63;10.50;;;30.80;50.10;;;;;;4927955;29;20329;-55
2020/12/31 05:47:44;;;;;;;9.55;8.65;;;30.80;50.50;;;;;;4927764;29;20265;-52
2020/12/31 05:50:22;;;;;;;14.55;11.50;;;30.80;50.50;;;;;;4930067;29;20721;-53
2020/12/31 05:52:53;;;;;;;10.18;9.02;;;30.90;50.60;;;;;;4955596;28;20232;-51
2020/12/31 05:55:25;;;;;;;7.53;6.70;;;30.90;50.60;;;;;;4965461;28;20239;-50
2020/12/31 05:57:56;;;;;;;9.73;8.32;;;31.00;50.50;;;;;;4949724;28;20233;-49
2020/12/31 06:00:26;;;;;;;13.00;10.35;;;31.00;50.40;;;;;;4961107;28;20220;-52
2020/12/31 06:02:58;;;;;;;9.73;8.15;;;31.10;50.20;;;;;;4968651;28;20244;-50
2020/12/31 06:05:31;;;;;;;9.65;7.88;;;31.20;49.50;;;;;;4967453;28;20228;-49
2020/12/31 06:08:02;;;;;;;8.65;7.38;;;31.20;49.80;;;;;;4949465;28;20309;-52
2020/12/31 06:10:34;;;;;;;7.95;7.15;;;31.30;49.90;;;;;;4966166;28;20271;-53
2020/12/31 06:13:05;;;;;;;9.55;8.57;;;31.30;50.30;;;;;;4970594;28;20252;-49
2020/12/31 06:15:37;;;;;;;8.40;7.53;;;31.40;49.50;;;;;;4971366;28;20236;-54
2020/12/31 06:18:08;;;;;;;8.45;7.60;;;31.40;49.60;;;;;;4966949;28;20255;-51
2020/12/31 06:20:38;;;;;;;9.18;7.38;;;31.50;49.80;;;;;;4967185;28;20236;-56
2020/12/31 06:23:09;;;;;;;12.15;8.95;;;31.60;49.40;;;;;;4962763;28;20254;-53
2020/12/31 06:25:44;;;;;;;8.40;7.60;;;31.60;48.90;;;;;;4964667;28;20245;-54
2020/12/31 06:28:18;;;;;;;6.65;6.10;;;31.70;48.80;;;;;;4964777;28;20237;-54
2020/12/31 06:30:49;;;;;;;7.40;6.70;;;31.70;49.00;;;;;;4964910;28;20237;-53
2020/12/31 06:33:25;;;;;;;9.93;7.57;;;31.70;48.90;;;;;;4965410;28;20235;-54
2020/12/31 06:35:57;;;;;;;8.90;8.10;;;31.80;48.70;;;;;;4967452;28;20232;-50
2020/12/31 06:38:35;;;;;;;8.23;7.45;;;31.80;48.10;;;;;;4966859;28;20243;-53
2020/12/31 06:41:07;;;;;;;7.00;6.40;;;31.90;48.30;;;;;;4961690;28;20232;-54
2020/12/31 06:43:38;;;;;;;8.30;7.50;;;31.90;48.30;;;;;;4959823;28;20272;-54
2020/12/31 06:46:26;;;;;;;7.20;6.50;;;31.90;47.90;;;;;;4956583;28;20698;-51
2020/12/31 06:48:57;;;;;;;9.30;6.47;;;32.00;48.20;;;;;;4964745;28;20225;-56
2020/12/31 06:51:32;;;;;;;8.00;7.20;;;32.00;48.50;;;;;;4962215;28;20326;-56
2020/12/31 06:54:02;;;;;;;7.47;6.82;;;32.10;48.70;;;;;;4961223;28;20587;-55
2020/12/31 06:56:44;;;;;;;7.55;6.70;;;32.10;48.40;;;;;;4963976;28;20764;-55
2020/12/31 06:59:31;;;;;;;8.73;7.60;;;32.20;47.90;;;;;;4962593;28;20232;-49
2020/12/31 07:02:02;;;;;;;8.52;6.88;;;32.30;47.00;;;;;;4955521;28;20241;-55
2020/12/31 07:04:35;;;;;;;8.05;7.25;;;32.30;46.70;;;;;;4959951;28;20241;-54
2020/12/31 07:07:28;;;;;;;7.22;6.53;;;32.30;46.80;;;;;;4958399;28;20229;-56
2020/12/31 07:09:59;;;;;;;7.72;6.55;;;32.40;46.80;;;;;;4964989;28;20298;-56
2020/12/31 07:12:35;;;;;;;7.22;6.47;;;32.40;46.60;;;;;;4959557;28;25045;-56
2020/12/31 07:15:06;;;;;;;8.60;6.72;;;32.40;46.60;;;;;;4965796;28;20231;-54
2020/12/31 07:17:37;;;;;;;7.10;6.40;;;32.50;46.70;;;;;;4965054;28;20308;-55
2020/12/31 07:20:09;;;;;;;8.75;6.85;;;32.50;46.80;;;;;;4960370;28;20812;-55
2020/12/31 07:22:39;;;;;;;8.65;7.85;;;32.60;46.50;;;;;;4961483;28;20765;-51
2020/12/31 07:25:10;;;;;;;8.15;7.45;;;32.60;45.90;;;;;;4964877;28;20344;-52
2020/12/31 07:27:42;;;;;;;7.40;6.70;;;32.70;45.70;;;;;;4965269;28;20278;-51
2020/12/31 07:30:18;;;;;;;7.35;6.65;;;32.70;45.70;;;;;;4964213;28;21034;-52
2020/12/31 07:33:01;;;;;;;6.68;6.18;;;32.70;45.70;;;;;;4967039;28;20271;-54
2020/12/31 07:35:33;;;;;;;7.50;6.35;;;32.70;46.20;;;;;;4963785;28;20249;-53
2020/12/31 07:38:04;;;;;;;10.60;6.93;;;32.70;46.10;;;;;;4961726;28;20240;-55
2020/12/31 07:40:41;;;;;;;7.70;6.95;;;32.80;45.70;;;;;;4956916;28;20245;-52
2020/12/31 07:43:14;;;;;;;9.63;8.10;;;32.80;45.70;;;;;;4960320;28;20744;-56
2020/12/31 07:45:49;;;;;;;8.40;7.60;;;32.80;45.40;;;;;;4961175;28;20275;-51
2020/12/31 07:48:19;;;;;;;7.43;6.70;;;32.80;45.20;;;;;;4955403;28;20236;-51
2020/12/31 07:50:54;;;;;;;7.53;6.88;;;32.80;45.50;;;;;;4952749;28;20318;-50
2020/12/31 07:53:25;;;;;;;6.68;6.07;;;32.90;45.00;;;;;;4963515;28;20641;-50
2020/12/31 07:55:55;;;;;;;7.07;6.35;;;32.80;45.40;;;;;;4959434;28;20318;-52
2020/12/31 07:58:28;;;;;;;8.10;7.07;;;32.90;45.20;;;;;;4954889;28;20235;-49
2020/12/31 08:01:00;;;;;;;9.13;7.00;;;32.90;45.10;;;;;;4960400;28;20646;-51
2020/12/31 08:03:31;;;;;;;9.40;7.78;;;33.00;45.10;;;;;;4964080;28;20256;-52
2020/12/31 08:06:02;;;;;;;7.43;6.63;;;33.00;44.90;;;;;;4957759;28;20252;-55
2020/12/31 08:08:34;;;;;;;9.05;6.68;;;33.00;45.10;;;;;;4964544;28;20235;-49
2020/12/31 08:11:08;;;;;;;10.02;7.30;;;33.10;45.30;;;;;;4959725;28;20299;-56
2020/12/31 08:13:40;;;;;;;7.97;6.32;;;33.10;45.00;;;;;;4957696;28;20228;-51
2020/12/31 08:16:15;;;;;;;8.32;7.53;;;33.10;45.10;;;;;;4964945;28;20311;-55
2020/12/31 08:18:45;;;;;;;7.03;6.43;;;33.20;45.70;;;;;;5035133;28;20240;-52
2020/12/31 08:21:16;;;;;;;8.48;6.80;;;33.20;45.30;;;;;;5043176;28;20237;-55
2020/12/31 08:23:47;;;;;;;7.13;6.38;;;33.30;45.00;;;;;;5040583;28;20319;-50
2020/12/31 08:26:19;;;;;;;7.68;6.72;;;33.30;45.10;;;;;;4976202;28;20259;-52
2020/12/31 08:28:51;;;;;;;7.20;6.50;;;33.40;45.10;;;;;;4981846;28;20791;-52
2020/12/31 08:31:24;;;;;;;7.30;6.60;;;33.50;45.20;;;;;;4977811;28;20919;-50
2020/12/31 08:34:00;;;;;;;7.85;7.05;;;33.50;44.20;;;;;;4921661;29;20230;-52
2020/12/31 08:36:31;;;;;;;6.93;6.22;;;33.60;44.50;;;;;;4917919;29;20727;-50
2020/12/31 08:39:05;;;;;;;7.82;7.05;;;33.60;44.60;;;;;;4924501;29;20246;-52
2020/12/31 08:41:37;;;;;;;7.07;6.47;;;33.70;44.10;;;;;;4870165;29;20318;-52
2020/12/31 08:44:13;;;;;;;9.75;6.65;;;33.70;43.90;;;;;;4886722;29;20291;-52
2020/12/31 08:46:43;;;;;;;6.72;6.10;;;33.80;44.00;;;;;;4872128;29;20933;-51
2020/12/31 08:49:20;;;;;;;7.45;6.75;;;33.80;43.90;;;;;;4815423;29;20296;-51
2020/12/31 08:51:51;;;;;;;8.20;7.40;;;33.80;43.90;;;;;;4777811;29;20784;-50
2020/12/31 08:54:22;;;;;;;6.95;6.32;;;33.80;43.30;;;;;;4779165;29;20304;-54
2020/12/31 08:57:17;;;;;;;7.93;7.13;;;33.80;43.40;;;;;;4794668;29;20714;-53
2020/12/31 08:59:48;;;;;;;7.53;6.88;;;33.80;42.60;;;;;;4870461;29;20335;-52
2020/12/31 09:02:19;;;;;;;7.35;6.65;;;33.80;43.60;;;;;;4870625;29;20255;-51
2020/12/31 09:04:49;;;;;;;7.47;6.78;;;33.80;43.80;;;;;;4868748;29;20236;-55
2020/12/31 09:07:20;;;;;;;7.55;6.75;;;33.80;43.60;;;;;;4928052;29;20245;-55
2020/12/31 09:09:54;;;;;;;8.02;7.22;;;33.80;43.40;;;;;;4926622;29;20234;-55
2020/12/31 09:12:24;;;;;;;8.18;7.38;;;33.80;43.10;;;;;;4943031;28;20235;-53
2020/12/31 09:14:58;;;;;;;8.27;7.47;;;33.90;43.30;;;;;;5021715;28;20249;-52
2020/12/31 09:17:30;;;;;;;7.80;7.10;;;33.80;43.10;;;;;;5024287;28;20606;-51
2020/12/31 09:20:00;;;;;;;8.02;7.25;;;33.80;43.40;;;;;;5024728;28;20226;-55
2020/12/31 09:22:31;;;;;;;8.38;7.60;;;33.80;42.90;;;;;;5003136;28;20240;-56
2020/12/31 09:25:11;;;;;;;8.50;6.97;;;33.80;43.10;;;;;;4964693;28;20228;-56
2020/12/31 09:27:41;;;;;;;7.35;6.50;;;33.80;43.40;;;;;;4965531;28;20240;-55
2020/12/31 09:30:13;;;;;;;11.02;7.40;;;33.80;43.50;;;;;;4967232;28;20237;-52
2020/12/31 09:32:47;;;;;;;7.85;7.10;;;33.80;42.80;;;;;;4963587;28;20233;-56
2020/12/31 09:35:18;;;;;;;7.72;6.93;;;33.70;42.70;;;;;;4964898;28;20236;-54
2020/12/31 09:37:50;;;;;;;8.20;7.40;;;33.70;43.00;;;;;;4951371;28;20233;-52
2020/12/31 09:40:20;;;;;;;10.60;7.53;;;33.60;43.00;;;;;;4956432;28;20343;-55
2020/12/31 09:42:52;;;;;;;8.77;7.90;;;33.60;43.20;;;;;;4962036;28;20236;-53
2020/12/31 09:45:24;;;;;;;9.27;7.55;;;33.60;43.20;;;;;;4959375;28;20307;-54
2020/12/31 09:47:55;;;;;;;9.23;7.57;;;33.70;43.60;;;;;;4962589;28;20272;-54
2020/12/31 09:50:25;;;;;;;8.85;8.00;;;33.70;43.40;;;;;;4967989;28;20240;-50
2020/12/31 09:52:56;;;;;;;9.80;8.20;;;33.80;43.30;;;;;;4967377;28;20255;-51
2020/12/31 09:55:44;;;;;;;9.77;7.68;;;33.80;42.90;;;;;;4968333;28;20221;-55
2020/12/31 09:58:15;;;;;;;8.45;7.70;;;34.00;42.90;;;;;;4954718;28;20237;-51
2020/12/31 10:00:46;;;;;;;9.02;7.35;;;34.00;42.90;;;;;;4964544;28;20616;-52
2020/12/31 10:03:17;;;;;;;8.57;7.78;;;34.00;42.80;;;;;;4964379;28;20237;-48
2020/12/31 10:05:48;;;;;;;8.32;7.53;;;33.90;42.70;;;;;;4967191;28;20332;-50
2020/12/31 10:08:18;;;;;;;8.38;7.57;;;33.90;43.00;;;;;;4958613;28;20320;-53
2020/12/31 10:10:49;;;;;;;8.15;7.38;;;33.80;43.10;;;;;;4967992;28;20315;-54
2020/12/31 10:13:20;;;;;;;8.63;7.75;;;33.80;43.20;;;;;;4968177;28;20236;-52
2020/12/31 10:15:51;;;;;;;7.75;7.05;;;33.80;43.30;;;;;;4968165;28;20290;-54
2020/12/31 10:18:22;;;;;;;8.20;7.40;;;33.80;43.30;;;;;;4967577;28;20236;-51
2020/12/31 10:20:55;;;;;;;8.70;7.68;;;33.80;43.40;;;;;;4969605;28;20256;-48
2020/12/31 10:23:26;;;;;;;8.20;7.47;;;34.00;43.40;;;;;;4966696;28;20275;-50
2020/12/31 10:25:57;;;;;;;8.40;7.50;;;34.20;43.40;;;;;;4965054;28;20251;-51
2020/12/31 10:28:27;;;;;;;8.32;7.55;;;34.40;43.20;;;;;;4964668;28;20263;-51
2020/12/31 10:31:00;;;;;;;8.00;7.30;;;34.70;42.90;;;;;;4967758;28;20319;-51
2020/12/31 10:33:31;;;;;;;7.63;6.88;;;34.90;42.50;;;;;;4965900;28;20293;-50
2020/12/31 10:36:02;;;;;;;8.50;7.70;;;35.10;42.30;;;;;;4969451;28;20228;-49
2020/12/31 10:38:32;;;;;;;8.02;7.28;;;35.20;41.80;;;;;;4967010;28;20323;-50
2020/12/31 10:41:03;;;;;;;7.65;6.95;;;35.30;41.40;;;;;;4958589;28;20268;-49
2020/12/31 10:43:35;;;;;;;7.90;6.90;;;35.40;41.00;;;;;;4967905;28;20236;-53
2020/12/31 10:46:21;;;;;;;8.27;7.30;;;35.40;40.90;;;;;;4970321;28;20235;-49
2020/12/31 10:48:52;;;;;;;9.23;7.95;;;35.30;40.80;;;;;;4955983;28;20313;-51
2020/12/31 10:51:23;;;;;;;17.98;8.18;;;35.20;40.50;;;;;;4967996;28;20233;-49
2020/12/31 10:53:54;;;;;;;8.30;7.32;;;35.00;40.40;;;;;;4969617;28;20248;-49
2020/12/31 10:56:24;;;;;;;9.63;8.38;;;34.80;40.60;;;;;;4964660;28;20233;-55
2020/12/31 10:58:55;;;;;;;8.77;7.97;;;34.50;40.70;;;;;;4969342;28;20614;-49
2020/12/31 11:01:27;;;;;;;8.80;7.78;;;34.30;40.90;;;;;;4969007;28;20229;-49
2020/12/31 11:03:57;;;;;;;11.57;7.65;;;33.90;41.20;;;;;;4969332;28;20236;-51
2020/12/31 11:06:30;;;;;;;9.10;7.63;;;33.70;41.60;;;;;;4968555;28;20231;-55
2020/12/31 11:09:01;;;;;;;8.00;7.20;;;33.40;41.90;;;;;;4969144;28;20228;-57
2020/12/31 11:11:33;;;;;;;7.07;6.38;;;33.20;42.30;;;;;;4967571;28;20247;-56
2020/12/31 11:14:04;;;;;;;8.02;7.22;;;33.00;42.60;;;;;;4968202;28;20263;-56
2020/12/31 11:16:35;;;;;;;10.23;7.78;;;32.80;42.80;;;;;;4967808;28;20750;-57
2020/12/31 11:19:06;;;;;;;8.70;7.53;;;32.60;43.10;;;;;;4968159;28;20240;-56
2020/12/31 11:21:37;;;;;;;10.13;8.48;;;32.40;43.30;;;;;;4968922;28;20255;-56
2020/12/31 11:24:08;;;;;;;9.05;7.97;;;32.20;43.60;;;;;;4968780;28;20629;-54
2020/12/31 11:26:38;;;;;;;8.60;7.22;;;32.10;43.90;;;;;;5007670;28;20765;-52
2020/12/31 11:29:09;;;;;;;9.55;8.60;;;32.00;44.10;;;;;;4968624;28;20310;-52
2020/12/31 11:31:41;;;;;;;10.77;9.73;;;31.90;44.20;;;;;;4966210;28;20306;-53
2020/12/31 11:34:26;;;;;;;10.05;9.05;;;31.70;44.50;;;;;;4967197;28;20286;-53
2020/12/31 11:36:57;;;;;;;9.50;8.65;;;31.60;44.70;;;;;;4975075;28;20232;-55
2020/12/31 11:39:27;;;;;;;11.25;10.18;;;31.50;45.00;;;;;;4962663;28;20723;-51
2020/12/31 11:41:58;;;;;;;10.35;9.38;;;31.40;45.10;;;;;;4968877;28;20236;-54
2020/12/31 11:44:29;;;;;;;12.50;11.30;;;31.30;45.30;;;;;;4963109;28;20315;-54
2020/12/31 11:47:03;;;;;;;12.98;11.80;;;31.20;45.50;;;;;;4968281;28;20232;-52
2020/12/31 11:49:33;;;;;;;13.68;12.38;;;31.10;45.70;;;;;;4974453;28;20232;-54
2020/12/31 11:52:04;;;;;;;12.80;11.65;;;31.00;45.90;;;;;;4967291;28;20260;-56
2020/12/31 11:54:35;;;;;;;10.70;9.73;;;31.00;46.20;;;;;;4967040;28;20249;-55
2020/12/31 11:57:06;;;;;;;14.85;13.40;;;30.90;46.30;;;;;;4969143;28;20244;-53
2020/12/31 11:59:36;;;;;;;12.98;11.68;;;30.80;46.50;;;;;;4969002;28;20244;-50
2020/12/31 12:02:09;;;;;;;11.45;10.25;;;30.70;46.50;;;;;;4967712;28;20247;-54
2020/12/31 12:04:39;;;;;;;13.07;11.68;;;30.70;46.80;;;;;;4967424;28;20336;-53
2020/12/31 12:07:10;;;;;;;13.43;12.13;;;30.60;46.90;;;;;;4928612;29;20325;-53
2020/12/31 12:09:41;;;;;;;10.43;9.38;;;30.60;47.10;;;;;;4923804;29;20280;-54
2020/12/31 12:12:12;;;;;;;10.65;9.50;;;30.50;47.20;;;;;;4928894;28;20241;-52
2020/12/31 12:14:42;;;;;;;10.00;9.05;;;30.50;47.40;;;;;;4929253;28;20234;-51
2020/12/31 12:17:14;;;;;;;11.82;8.30;;;30.40;47.40;;;;;;4928107;28;20265;-51
2020/12/31 12:19:45;;;;;;;9.10;8.20;;;30.40;47.60;;;;;;4925247;29;20269;-55
2020/12/31 12:22:15;;;;;;;10.73;9.18;;;30.30;47.70;;;;;;4870877;28;20637;-54
2020/12/31 12:24:46;;;;;;;9.95;8.93;;;30.20;47.90;;;;;;4864882;29;20243;-54
2020/12/31 12:27:16;;;;;;;12.02;10.70;;;30.20;48.00;;;;;;4866840;29;20228;-55
2020/12/31 12:29:48;;;;;;;14.00;12.65;;;30.10;48.10;;;;;;4869774;29;20240;-53
2020/12/31 12:32:19;;;;;;;10.73;9.70;;;30.10;48.20;;;;;;4867916;29;20239;-53
2020/12/31 12:34:50;;;;;;;11.63;10.63;;;30.00;48.40;;;;;;4868689;29;20875;-52
2020/12/31 12:37:22;;;;;;;12.95;11.85;;;30.00;48.50;;;;;;4876010;29;20237;-55
2020/12/31 12:39:53;;;;;;;10.63;9.32;;;29.90;48.60;;;;;;4923909;28;20229;-51
2020/12/31 12:42:26;;;;;;;10.15;8.75;;;29.90;48.70;;;;;;4924889;28;20238;-55
2020/12/31 12:44:56;;;;;;;9.68;8.80;;;29.90;48.80;;;;;;4924876;29;20313;-54
2020/12/31 12:47:29;;;;;;;10.15;8.98;;;29.80;48.90;;;;;;4956280;28;20228;-54
2020/12/31 12:50:01;;;;;;;9.02;8.13;;;29.80;49.10;;;;;;4964744;28;20232;-54
2020/12/31 12:52:32;;;;;;;10.48;8.65;;;29.80;49.20;;;;;;4959659;28;20294;-54
2020/12/31 12:55:02;;;;;;;9.48;7.53;;;29.70;49.20;;;;;;4965920;28;20232;-56
2020/12/31 12:57:33;;;;;;;8.60;7.80;;;29.70;49.30;;;;;;4963861;28;20382;-50
2020/12/31 13:00:03;;;;;;;8.65;7.75;;;29.60;49.30;;;;;;4966079;28;20258;-54
2020/12/31 13:02:35;;;;;;;9.80;7.32;;;29.60;49.50;;;;;;4965221;28;20247;-51
2020/12/31 13:05:06;;;;;;;8.35;7.47;;;29.50;49.60;;;;;;4965220;28;20247;-49
2020/12/31 13:07:37;;;;;;;7.30;6.60;;;29.50;49.80;;;;;;4964043;28;20235;-49